createdAt,value
2023-01-01T00:00:48.899Z,11.98
2023-01-01T00:03:36.788Z,12.55
2023-01-01T00:06:09.263Z,11.73
2023-01-01T00:08:37.286Z,14.35
2023-01-01T00:11:07.337Z,13.40
2023-01-01T00:13:37.105Z,15.85
2023-01-01T00:16:14.454Z,13.88
2023-01-01T00:18:41.786Z,17.33
2023-01-01T00:21:14.137Z,17.48
2023-01-01T00:23:41.804Z,17.60
2023-01-01T00:26:15.345Z,20.27
2023-01-01T00:28:43.404Z,19.17
2023-01-01T00:31:22.269Z,20.35
2023-01-01T00:33:55.526Z,21.55
2023-01-01T00:36:25.334Z,22.40
2023-01-01T00:38:53.251Z,27.00
2023-01-01T00:41:20.622Z,31.75
2023-01-01T00:43:48.170Z,35.22
2023-01-01T00:46:16.017Z,32.38
2023-01-01T00:48:43.579Z,32.92
2023-01-01T00:51:10.641Z,30.70
2023-01-01T00:53:38.059Z,22.60
2023-01-01T00:56:06.388Z,20.98
2023-01-01T00:58:34.122Z,19.40
2023-01-01T01:01:01.193Z,15.30
2023-01-01T01:03:29.140Z,14.00
2023-01-01T01:06:10.324Z,13.88
2023-01-01T01:08:42.266Z,11.90
2023-01-01T01:11:12.441Z,12.93
2023-01-01T01:13:41.798Z,11.77
2023-01-01T01:16:15.983Z,10.25
2023-01-01T01:18:44.253Z,9.52
2023-01-01T01:21:15.742Z,8.43
2023-01-01T01:23:42.952Z,8.10
2023-01-01T01:26:23.466Z,7.63
2023-01-01T01:28:52.845Z,8.32
2023-01-01T01:31:22.318Z,8.93
2023-01-01T01:33:50.744Z,7.13
2023-01-01T01:36:19.238Z,6.43
2023-01-01T01:38:47.572Z,6.88
2023-01-01T01:41:27.302Z,8.05
2023-01-01T01:44:25.330Z,5.88
2023-01-01T01:46:52.387Z,6.15
2023-01-01T01:49:31.977Z,7.13
2023-01-01T01:52:01.978Z,6.93
2023-01-01T01:54:30.241Z,8.18
2023-01-01T01:57:06.503Z,8.25
2023-01-01T01:59:40.051Z,7.60
2023-01-01T02:02:18.665Z,12.35
2023-01-01T02:04:46.565Z,16.58
2023-01-01T02:07:15.469Z,39.10
2023-01-01T02:09:43.642Z,95.47
2023-01-01T02:12:10.851Z,69.35
2023-01-01T02:14:39.231Z,89.25
2023-01-01T02:17:39.146Z,98.50
2023-01-01T02:20:53.309Z,64.47
2023-01-01T02:26:56.974Z,37.38
2023-01-01T02:32:29.659Z,8.70
2023-01-01T02:35:35.590Z,8.20
2023-01-01T02:38:17.794Z,22.38
2023-01-01T02:40:50.252Z,23.00
2023-01-01T02:43:21.610Z,18.35
2023-01-01T02:45:53.836Z,10.52
2023-01-01T02:48:43.179Z,27.63
2023-01-01T02:52:01.168Z,23.77
2023-01-01T02:56:05.085Z,24.73
2023-01-01T02:58:59.814Z,25.20
2023-01-01T03:01:57.924Z,23.42
2023-01-01T03:05:03.471Z,22.35
2023-01-01T03:08:04.004Z,25.27
2023-01-01T03:10:46.827Z,22.33
2023-01-01T03:13:41.744Z,21.60
2023-01-01T03:16:48.802Z,23.58
2023-01-01T03:19:23.488Z,18.75
2023-01-01T03:22:15.173Z,20.88
2023-01-01T03:24:52.419Z,21.55
2023-01-01T03:28:38.492Z,19.73
2023-01-01T03:31:06.909Z,19.05
2023-01-01T03:33:44.830Z,21.42
2023-01-01T03:36:18.265Z,21.55
2023-01-01T03:39:12.928Z,21.77
2023-01-01T03:41:52.288Z,21.73
2023-01-01T03:44:33.360Z,23.38
2023-01-01T03:47:02.299Z,22.00
2023-01-01T03:49:31.029Z,21.73
2023-01-01T03:52:38.424Z,21.23
2023-01-01T03:55:18.098Z,18.92
2023-01-01T03:58:03.266Z,17.92
2023-01-01T04:04:51.344Z,19.10
2023-01-01T04:07:19.374Z,20.25
2023-01-01T04:09:51.996Z,20.95
2023-01-01T04:12:20.724Z,20.63
2023-01-01T04:14:47.995Z,20.60
2023-01-01T04:17:15.355Z,21.02
2023-01-01T04:19:42.353Z,24.00
2023-01-01T04:22:10.219Z,20.50
2023-01-01T04:25:10.743Z,19.92
2023-01-01T04:27:40.055Z,20.80
2023-01-01T04:34:34.335Z,20.48
2023-01-01T04:37:02.124Z,18.50
2023-01-01T04:39:29.354Z,20.30
2023-01-01T04:41:56.373Z,18.33
2023-01-01T04:44:23.495Z,20.65
2023-01-01T04:51:04.722Z,18.90
2023-01-01T04:54:19.050Z,17.65
2023-01-01T05:01:30.681Z,16.45
2023-01-01T05:03:59.937Z,18.17
2023-01-01T05:06:28.859Z,18.60
2023-01-01T05:08:57.438Z,16.70
2023-01-01T05:11:28.714Z,17.70
2023-01-01T05:13:59.375Z,17.45
2023-01-01T05:16:31.426Z,15.60
2023-01-01T05:19:00.566Z,15.77
2023-01-01T05:21:39.514Z,15.77
2023-01-01T05:24:09.970Z,18.17
2023-01-01T05:26:44.371Z,15.93
2023-01-01T05:29:16.691Z,19.15
2023-01-01T05:31:46.316Z,17.13
2023-01-01T05:34:13.329Z,17.80
2023-01-01T05:37:38.160Z,16.60
2023-01-01T05:40:06.526Z,17.20
2023-01-01T05:46:31.908Z,18.90
2023-01-01T05:48:59.625Z,17.67
2023-01-01T05:51:29.642Z,17.73
2023-01-01T05:53:58.459Z,17.73
2023-01-01T05:56:26.976Z,19.45
2023-01-01T06:13:40.488Z,21.55
2023-01-01T06:16:09.550Z,19.95
2023-01-01T06:18:36.783Z,24.10
2023-01-01T06:21:27.290Z,19.70
2023-01-01T06:39:27.474Z,17.90
2023-01-01T06:41:57.015Z,17.23
2023-01-01T06:44:23.968Z,17.58
2023-01-01T06:46:51.296Z,18.10
2023-01-01T06:51:12.204Z,17.55
2023-01-01T06:55:57.466Z,16.63
2023-01-01T06:58:49.076Z,19.63
2023-01-01T07:01:26.028Z,18.73
2023-01-01T07:04:02.238Z,19.65
2023-01-01T07:06:33.189Z,16.65
2023-01-01T07:09:01.581Z,16.95
2023-01-01T07:11:29.746Z,15.68
2023-01-01T07:14:02.380Z,20.23
2023-01-01T07:16:29.874Z,18.33
2023-01-01T07:18:57.609Z,19.52
2023-01-01T07:21:50.045Z,18.27
2023-01-01T07:32:44.027Z,18.80
2023-01-01T07:35:15.058Z,19.77
2023-01-01T07:37:48.432Z,18.48
2023-01-01T07:40:16.330Z,18.83
2023-01-01T07:42:43.463Z,21.58
2023-01-01T07:45:13.338Z,20.05
2023-01-01T07:47:40.496Z,17.20
2023-01-01T07:50:16.755Z,19.05
2023-01-01T07:52:43.822Z,23.17
2023-01-01T07:55:16.670Z,23.95
2023-01-01T07:57:45.328Z,17.52
2023-01-01T08:00:17.309Z,18.98
2023-01-01T08:02:46.312Z,17.10
2023-01-01T08:05:14.162Z,17.08
2023-01-01T08:07:49.906Z,15.50
2023-01-01T08:10:20.343Z,15.07
2023-01-01T08:14:03.931Z,15.88
2023-01-01T08:16:38.057Z,17.52
2023-01-01T08:19:05.867Z,17.08
2023-01-01T08:21:33.108Z,24.20
2023-01-01T08:24:00.188Z,20.75
2023-01-01T08:26:35.114Z,21.23
2023-01-01T08:29:06.106Z,19.15
2023-01-01T08:31:33.911Z,19.83
2023-01-01T08:34:00.879Z,19.25
2023-01-01T08:36:28.365Z,22.33
2023-01-01T08:38:55.314Z,21.73
2023-01-01T08:41:24.421Z,20.10
2023-01-01T08:43:51.553Z,21.40
2023-01-01T08:46:18.807Z,19.52
2023-01-01T08:48:45.882Z,20.65
2023-01-01T08:51:13.279Z,20.40
2023-01-01T08:53:43.049Z,21.67
2023-01-01T08:56:15.901Z,23.10
2023-01-01T08:58:43.733Z,22.00
2023-01-01T09:02:16.642Z,21.92
2023-01-01T09:05:20.768Z,24.45
2023-01-01T09:08:32.433Z,20.90
2023-01-01T09:11:02.812Z,20.10
2023-01-01T09:13:31.838Z,20.83
2023-01-01T09:16:04.698Z,24.42
2023-01-01T09:18:32.342Z,22.33
2023-01-01T09:20:59.448Z,22.88
2023-01-01T09:23:26.451Z,19.23
2023-01-01T09:25:53.625Z,21.63
2023-01-01T09:28:25.689Z,18.85
2023-01-01T09:30:53.419Z,18.48
2023-01-01T09:33:20.371Z,19.05
2023-01-01T09:35:47.707Z,20.17
2023-01-01T09:38:14.654Z,19.85
2023-01-01T09:41:12.413Z,16.27
2023-01-01T09:44:29.755Z,17.73
2023-01-01T09:47:03.971Z,19.10
2023-01-01T09:49:59.283Z,16.83
2023-01-01T09:52:44.623Z,16.42
2023-01-01T09:55:24.845Z,17.15
2023-01-01T09:57:52.735Z,17.70
2023-01-01T10:00:20.400Z,15.80
2023-01-01T10:03:15.522Z,15.85
2023-01-01T10:06:20.891Z,15.23
2023-01-01T10:09:09.810Z,16.30
2023-01-01T10:11:55.641Z,16.02
2023-01-01T10:14:39.750Z,16.75
2023-01-01T10:17:20.531Z,17.73
2023-01-01T10:19:56.441Z,16.90
2023-01-01T10:22:33.080Z,17.13
2023-01-01T10:25:09.284Z,15.15
2023-01-01T10:27:44.730Z,17.05
2023-01-01T10:30:23.350Z,12.65
2023-01-01T10:32:54.310Z,16.20
2023-01-01T10:35:32.747Z,13.88
2023-01-01T10:38:01.572Z,14.68
2023-01-01T10:40:31.429Z,16.73
2023-01-01T10:43:03.958Z,18.02
2023-01-01T10:45:42.097Z,13.98
2023-01-01T10:48:27.241Z,13.70
2023-01-01T10:51:00.510Z,12.20
2023-01-01T10:53:41.656Z,15.88
2023-01-01T10:56:16.766Z,14.38
2023-01-01T10:58:54.634Z,13.88
2023-01-01T11:01:24.943Z,15.18
2023-01-01T11:04:21.216Z,15.40
2023-01-01T11:06:48.833Z,16.45
2023-01-01T11:09:23.359Z,15.88
2023-01-01T11:12:09.711Z,17.20
2023-01-01T11:14:44.307Z,15.65
2023-01-01T11:19:48.579Z,16.02
2023-01-01T11:22:45.821Z,17.02
2023-01-01T11:25:34.172Z,13.63
2023-01-01T11:28:22.533Z,17.70
2023-01-01T11:31:17.229Z,17.63
2023-01-01T11:33:52.957Z,15.90
2023-01-01T11:36:34.267Z,16.05
2023-01-01T11:39:26.767Z,16.48
2023-01-01T11:41:57.676Z,13.75
2023-01-01T11:44:46.592Z,15.15
2023-01-01T11:47:37.164Z,16.40
2023-01-01T11:50:14.064Z,15.35
2023-01-01T11:52:44.411Z,15.18
2023-01-01T11:55:20.368Z,13.48
2023-01-01T11:57:56.469Z,15.30
2023-01-01T12:00:23.979Z,13.52
2023-01-01T12:03:11.675Z,13.85
2023-01-01T12:06:18.748Z,12.93
2023-01-01T12:09:00.168Z,13.63
2023-01-01T12:11:40.314Z,12.93
2023-01-01T12:14:19.331Z,15.23
2023-01-01T12:17:37.514Z,11.82
2023-01-01T12:20:40.335Z,15.73
2023-01-01T12:23:11.762Z,13.18
2023-01-01T12:25:49.459Z,12.40
2023-01-01T12:28:41.543Z,15.23
2023-01-01T12:31:33.442Z,13.70
2023-01-01T12:34:15.666Z,12.73
2023-01-01T12:37:09.341Z,13.85
2023-01-01T12:40:34.272Z,12.55
2023-01-01T12:43:40.103Z,14.00
2023-01-01T12:46:23.907Z,13.23
2023-01-01T12:49:30.403Z,12.82
2023-01-01T12:52:49.537Z,13.85
2023-01-01T12:55:20.802Z,15.20
2023-01-01T12:58:08.416Z,16.05
2023-01-01T13:00:42.237Z,17.42
2023-01-01T13:03:24.149Z,14.77
2023-01-01T13:06:24.944Z,14.45
2023-01-01T13:09:17.364Z,17.10
2023-01-01T13:11:52.751Z,14.15
2023-01-01T13:14:20.446Z,15.93
2023-01-01T13:16:58.011Z,16.45
2023-01-01T13:24:26.882Z,16.30
2023-01-01T13:26:54.947Z,16.05
2023-01-01T13:29:22.317Z,16.05
2023-01-01T13:31:49.266Z,13.68
2023-01-01T13:34:35.817Z,17.55
2023-01-01T13:37:14.582Z,15.63
2023-01-01T13:40:04.475Z,16.38
2023-01-01T13:42:52.258Z,16.05
2023-01-01T14:17:25.307Z,16.63
2023-01-01T14:19:53.270Z,15.43
2023-01-01T14:22:21.448Z,13.65
2023-01-01T14:24:48.632Z,19.48
2023-01-01T14:27:21.904Z,15.50
2023-01-01T14:29:51.645Z,15.90
2023-01-01T14:32:25.382Z,15.27
2023-01-01T14:40:30.542Z,14.70
2023-01-01T14:43:10.327Z,14.77
2023-01-01T14:45:43.531Z,15.27
2023-01-01T14:48:20.638Z,16.40
2023-01-01T14:50:51.911Z,14.93
2023-01-01T14:53:28.814Z,16.00
2023-01-01T14:55:57.380Z,20.65
2023-01-01T15:02:24.284Z,39.78
2023-01-01T15:04:52.393Z,34.35
2023-01-01T15:07:29.102Z,34.88
2023-01-01T15:10:03.338Z,34.72
2023-01-01T15:12:34.459Z,32.67
2023-01-01T15:15:01.996Z,33.42
2023-01-01T15:17:45.500Z,30.67
2023-01-01T15:20:23.205Z,32.78
2023-01-01T15:22:52.479Z,38.08
2023-01-01T15:25:20.670Z,32.15
2023-01-01T15:27:54.797Z,31.65
2023-01-01T15:30:31.692Z,29.90
2023-01-01T15:33:16.704Z,29.17
2023-01-01T15:35:50.525Z,26.95
2023-01-01T15:38:30.925Z,28.45
2023-01-01T15:40:58.110Z,29.77
2023-01-01T15:43:31.112Z,27.73
2023-01-01T15:46:20.970Z,27.90
2023-01-01T15:48:53.187Z,31.17
2023-01-01T15:51:25.243Z,30.00
2023-01-01T15:54:04.836Z,28.80
2023-01-01T15:56:40.060Z,28.25
2023-01-01T15:59:27.011Z,31.00
2023-01-01T16:02:13.340Z,35.30
2023-01-01T16:04:50.201Z,35.30
2023-01-01T16:07:23.270Z,33.30
2023-01-01T16:09:57.396Z,29.40
2023-01-01T16:12:25.704Z,31.60
2023-01-01T16:14:55.597Z,30.42
2023-01-01T16:19:52.254Z,29.73
2023-01-01T16:22:20.498Z,28.45
2023-01-01T16:24:47.566Z,31.15
2023-01-01T16:27:15.868Z,28.83
2023-01-01T16:29:43.853Z,33.97
2023-01-01T16:32:18.050Z,32.00
2023-01-01T16:34:45.257Z,31.75
2023-01-01T16:37:12.475Z,34.78
2023-01-01T16:39:39.501Z,30.40
2023-01-01T16:42:11.970Z,29.25
2023-01-01T16:44:42.001Z,29.02
2023-01-01T16:47:10.329Z,31.65
2023-01-01T16:49:38.587Z,28.80
2023-01-01T16:52:05.885Z,30.08
2023-01-01T16:54:33.702Z,29.48
2023-01-01T16:57:00.935Z,27.20
2023-01-01T16:59:27.969Z,26.45
2023-01-01T17:01:55.401Z,26.27
2023-01-01T17:04:22.717Z,26.73
2023-01-01T17:11:55.475Z,25.10
2023-01-01T17:14:22.475Z,26.55
2023-01-01T17:16:51.779Z,25.35
2023-01-01T17:19:18.760Z,25.15
2023-01-01T17:21:51.371Z,28.13
2023-01-01T17:24:36.747Z,27.42
2023-01-01T17:27:22.338Z,28.98
2023-01-01T17:35:42.869Z,28.13
2023-01-01T17:38:24.259Z,29.65
2023-01-01T17:41:10.717Z,26.70
2023-01-01T17:56:47.499Z,33.30
2023-01-01T17:59:16.138Z,34.38
2023-01-01T18:01:43.901Z,32.72
2023-01-01T18:04:14.412Z,33.97
2023-01-01T18:06:43.648Z,38.28
2023-01-01T18:09:13.802Z,34.67
2023-01-01T18:11:41.593Z,37.63
2023-01-01T18:14:10.842Z,39.65
2023-01-01T18:16:41.358Z,42.50
2023-01-01T18:19:50.910Z,41.17
2023-01-01T18:22:18.173Z,38.80
2023-01-01T18:24:45.318Z,40.70
2023-01-01T18:27:12.564Z,39.63
2023-01-01T18:29:39.800Z,41.70
2023-01-01T18:32:06.800Z,46.78
2023-01-01T18:34:33.977Z,44.95
2023-01-01T18:37:01.131Z,45.47
2023-01-01T18:43:25.098Z,47.38
2023-01-01T18:45:52.658Z,43.53
2023-01-01T18:48:21.771Z,43.05
2023-01-01T18:50:48.956Z,43.42
2023-01-01T18:53:23.066Z,45.75
2023-01-01T18:56:11.114Z,38.72
2023-01-01T18:58:42.719Z,40.88
2023-01-01T19:01:18.315Z,38.45
2023-01-01T19:03:50.686Z,39.63
2023-01-01T19:06:29.740Z,38.83
2023-01-01T19:09:18.466Z,38.03
2023-01-01T19:11:49.537Z,40.60
2023-01-01T19:14:25.569Z,35.83
2023-01-01T19:16:58.382Z,36.05
2023-01-01T19:19:29.339Z,38.45
2023-01-01T19:22:28.738Z,39.20
2023-01-01T19:24:55.826Z,39.15
2023-01-01T19:27:24.827Z,39.58
2023-01-01T19:29:52.636Z,36.83
2023-01-01T19:32:21.256Z,42.38
2023-01-01T19:34:48.526Z,47.92
2023-01-01T19:37:16.009Z,46.38
2023-01-01T19:39:43.775Z,46.35
2023-01-01T19:42:12.214Z,42.03
2023-01-01T19:44:39.950Z,42.83
2023-01-01T19:47:09.142Z,45.13
2023-01-01T19:49:36.435Z,44.85
2023-01-01T19:52:03.939Z,42.25
2023-01-01T19:54:30.973Z,41.83
2023-01-01T19:56:58.281Z,44.33
2023-01-01T19:59:32.851Z,42.03
2023-01-01T20:04:49.608Z,44.67
2023-01-01T20:07:17.465Z,43.00
2023-01-01T20:09:44.564Z,46.58
2023-01-01T20:12:11.823Z,46.03
2023-01-01T20:14:38.826Z,49.40
2023-01-01T20:17:06.254Z,46.25
2023-01-01T20:19:33.642Z,45.72
2023-01-01T20:22:14.054Z,46.13
2023-01-01T20:24:42.338Z,44.28
2023-01-01T20:27:10.168Z,43.15
2023-01-01T20:29:38.351Z,41.20
2023-01-01T20:32:15.603Z,43.40
2023-01-01T20:34:43.350Z,42.05
2023-01-01T20:37:29.942Z,45.88
2023-01-01T20:39:57.176Z,43.40
2023-01-01T20:42:24.683Z,43.72
2023-01-01T20:44:51.610Z,45.80
2023-01-01T20:47:18.930Z,52.47
2023-01-01T20:49:46.015Z,56.50
2023-01-01T20:52:13.356Z,54.45
2023-01-01T20:54:40.641Z,55.65
2023-01-01T20:57:07.910Z,57.40
2023-01-01T20:59:36.776Z,52.03
2023-01-01T21:02:11.470Z,51.13
2023-01-01T21:04:39.952Z,49.45
2023-01-01T21:07:10.695Z,52.72
2023-01-01T21:09:39.607Z,52.33
2023-01-01T21:12:08.518Z,49.50
2023-01-01T21:14:36.189Z,53.60
2023-01-01T21:17:23.600Z,52.42
2023-01-01T21:19:58.201Z,53.97
2023-01-01T21:22:27.663Z,50.45
2023-01-01T21:25:16.772Z,58.03
2023-01-01T21:27:44.600Z,55.60
2023-01-01T21:30:12.943Z,53.42
2023-01-01T21:32:49.421Z,54.33
2023-01-01T21:35:31.685Z,50.33
2023-01-01T21:38:00.946Z,50.95
2023-01-01T21:40:54.107Z,57.90
2023-01-01T21:43:31.920Z,57.78
2023-01-01T21:46:07.433Z,57.22
2023-01-01T21:49:36.626Z,55.42
2023-01-01T21:52:19.828Z,57.92
2023-01-01T21:54:48.775Z,50.95
2023-01-01T21:57:39.426Z,52.90
2023-01-01T22:00:19.983Z,52.72
2023-01-01T22:02:48.670Z,46.78
2023-01-01T22:06:58.564Z,53.97
2023-01-01T22:09:34.743Z,60.72
2023-01-01T22:12:14.047Z,52.33
2023-01-01T22:14:45.663Z,52.85
2023-01-01T22:17:23.746Z,51.50
2023-01-01T22:20:05.026Z,50.55
2023-01-01T22:27:35.740Z,52.00
2023-01-01T22:30:19.035Z,48.45
2023-01-01T22:32:53.630Z,49.90
2023-01-01T22:35:32.268Z,46.35
2023-01-01T22:38:06.854Z,47.53
2023-01-01T23:29:54.865Z,43.58
2023-01-01T23:32:22.207Z,44.97
2023-01-01T23:34:49.188Z,45.08
2023-01-01T23:37:16.971Z,41.53
2023-01-01T23:39:44.340Z,42.53
2023-01-01T23:42:11.581Z,40.13
2023-01-01T23:44:38.587Z,44.72
2023-01-01T23:47:05.871Z,43.22
2023-01-01T23:49:33.428Z,42.00
2023-01-01T23:52:02.379Z,41.17
2023-01-01T23:54:29.695Z,41.55
